createdAt,value
2018-12-20T00:00:25.712Z,56.00
2018-12-20T00:05:11.173Z,57.10
2018-12-20T00:09:56.047Z,54.13
2018-12-20T00:14:40.949Z,70.50
2018-12-20T00:19:25.853Z,83.63
2018-12-20T00:24:11.320Z,82.43
2018-12-20T00:28:56.576Z,77.27
2018-12-20T00:33:41.513Z,76.13
2018-12-20T00:38:26.392Z,56.40
2018-12-20T00:43:11.425Z,54.27
2018-12-20T00:47:56.546Z,47.57
2018-12-20T00:52:41.550Z,47.00
2018-12-20T00:57:26.391Z,48.27
2018-12-20T01:02:11.360Z,50.43
2018-12-20T01:06:56.337Z,59.07
2018-12-20T01:11:41.497Z,52.43
2018-12-20T01:16:26.911Z,47.63
2018-12-20T01:21:12.052Z,56.23
2018-12-20T01:25:56.930Z,57.53
2018-12-20T01:30:41.860Z,61.63
2018-12-20T01:35:26.786Z,62.33
2018-12-20T01:40:11.839Z,52.93
2018-12-20T01:44:56.774Z,55.33
2018-12-20T01:49:41.621Z,51.37
2018-12-20T01:54:26.500Z,52.50
2018-12-20T01:59:11.404Z,58.83
2018-12-20T02:03:56.213Z,52.30
2018-12-20T02:08:41.412Z,45.17
2018-12-20T02:13:26.419Z,47.90
2018-12-20T02:18:11.419Z,62.67
2018-12-20T02:22:56.454Z,57.07
2018-12-20T02:27:41.474Z,70.27
2018-12-20T02:32:26.495Z,69.37
2018-12-20T02:37:11.388Z,60.53
2018-12-20T02:41:56.231Z,51.13
2018-12-20T02:46:41.362Z,54.57
2018-12-20T02:51:26.401Z,79.23
2018-12-20T02:56:11.342Z,53.87
2018-12-20T03:00:56.485Z,58.57
2018-12-20T03:05:41.262Z,68.53
2018-12-20T03:10:26.099Z,71.70
2018-12-20T03:15:19.671Z,65.03
2018-12-20T03:19:57.881Z,48.43
2018-12-20T03:24:42.839Z,63.50
2018-12-20T03:29:27.701Z,59.00
2018-12-20T03:34:12.722Z,55.63
2018-12-20T03:38:57.799Z,54.57
2018-12-20T03:43:42.788Z,69.30
2018-12-20T03:48:27.632Z,64.97
2018-12-20T03:53:12.597Z,51.33
2018-12-20T03:57:57.624Z,44.70
2018-12-20T04:02:42.728Z,38.10
2018-12-20T04:07:27.651Z,37.83
2018-12-20T04:12:12.476Z,40.93
2018-12-20T04:16:57.392Z,28.53
2018-12-20T04:21:42.324Z,26.20
2018-12-20T04:26:27.213Z,31.93
2018-12-20T04:31:12.237Z,30.57
2018-12-20T04:35:57.506Z,33.20
2018-12-20T04:40:42.384Z,38.67
2018-12-20T04:45:27.143Z,38.03
2018-12-20T04:50:12.197Z,40.53
2018-12-20T04:54:57.037Z,43.40
2018-12-20T04:59:41.877Z,46.07
2018-12-20T05:04:26.675Z,36.73
2018-12-20T05:09:11.639Z,45.53
2018-12-20T05:13:56.581Z,41.33
2018-12-20T05:18:41.715Z,42.57
2018-12-20T05:23:26.801Z,45.47
2018-12-20T05:28:12.506Z,44.33
2018-12-20T05:32:57.352Z,37.93
2018-12-20T05:37:42.214Z,41.37
2018-12-20T05:42:27.081Z,54.27
2018-12-20T05:47:12.231Z,46.40
2018-12-20T05:51:57.314Z,49.77
2018-12-20T05:56:42.140Z,46.10
2018-12-20T06:01:26.970Z,46.70
2018-12-20T06:06:11.778Z,54.47
2018-12-20T06:10:56.871Z,59.87
2018-12-20T06:15:41.651Z,50.07
2018-12-20T06:20:26.635Z,48.27
2018-12-20T06:25:11.440Z,41.63
2018-12-20T06:29:56.186Z,44.17
2018-12-20T06:34:40.833Z,52.70
2018-12-20T06:39:25.834Z,54.83
2018-12-20T06:44:10.622Z,63.57
2018-12-20T06:48:55.473Z,59.47
2018-12-20T06:53:40.257Z,57.17
2018-12-20T06:58:26.159Z,54.77
2018-12-20T07:03:10.963Z,51.70
2018-12-20T07:07:55.682Z,45.50
2018-12-20T07:12:40.451Z,43.17
2018-12-20T07:17:25.195Z,42.93
2018-12-20T07:22:10.002Z,48.80
2018-12-20T07:26:54.809Z,38.33
2018-12-20T07:31:39.583Z,27.50
2018-12-20T07:36:24.412Z,27.13
2018-12-20T07:41:09.188Z,24.13
2018-12-20T07:45:54.023Z,24.20
2018-12-20T07:50:39.200Z,21.90
2018-12-20T07:55:24.185Z,28.83
2018-12-20T08:00:09.126Z,23.20
2018-12-20T08:04:53.938Z,20.87
2018-12-20T08:09:38.967Z,20.73
2018-12-20T08:14:23.827Z,20.97
2018-12-20T08:19:08.558Z,21.83
2018-12-20T08:23:53.447Z,21.57
2018-12-20T08:28:38.188Z,22.47
2018-12-20T08:33:23.086Z,16.70
2018-12-20T08:38:07.891Z,19.53
2018-12-20T08:42:52.656Z,17.87
2018-12-20T08:47:37.515Z,18.07
2018-12-20T08:52:22.435Z,15.73
2018-12-20T08:57:07.343Z,20.03
2018-12-20T09:01:52.209Z,24.97
2018-12-20T09:06:37.268Z,23.33
2018-12-20T09:11:22.112Z,21.27
2018-12-20T09:16:07.449Z,20.20
2018-12-20T09:20:52.226Z,21.33
2018-12-20T09:25:37.027Z,16.70
2018-12-20T09:30:21.835Z,14.67
2018-12-20T09:35:06.920Z,14.37
2018-12-20T09:39:51.674Z,13.93
2018-12-20T09:44:36.449Z,15.17
2018-12-20T09:49:21.280Z,18.73
2018-12-20T09:54:06.158Z,16.43
2018-12-20T09:58:50.991Z,16.90
2018-12-20T10:03:35.969Z,23.57
2018-12-20T10:08:20.793Z,18.20
2018-12-20T10:13:05.703Z,22.37
2018-12-20T10:17:50.631Z,25.73
2018-12-20T10:22:35.383Z,23.60
2018-12-20T10:27:20.162Z,25.13
2018-12-20T10:32:05.270Z,29.20
2018-12-20T10:36:50.092Z,20.93
2018-12-20T10:41:34.885Z,21.57
2018-12-20T10:46:19.675Z,20.80
2018-12-20T10:51:04.435Z,22.60
2018-12-20T10:55:49.342Z,14.03
2018-12-20T11:00:39.260Z,11.20
2018-12-20T11:05:28.174Z,15.00
2018-12-20T11:10:18.286Z,14.50
2018-12-20T11:15:03.109Z,11.97
2018-12-20T11:19:47.837Z,11.40
2018-12-20T11:24:32.581Z,10.83
2018-12-20T11:29:17.360Z,9.50
2018-12-20T11:34:02.170Z,10.70
2018-12-20T11:38:46.899Z,12.23
2018-12-20T11:43:31.703Z,13.57
2018-12-20T11:48:16.451Z,13.37
2018-12-20T11:53:01.307Z,12.90
2018-12-20T11:57:46.512Z,9.30
2018-12-20T12:02:31.344Z,10.47
2018-12-20T12:07:16.111Z,11.70
2018-12-20T12:12:00.911Z,14.33
2018-12-20T12:16:45.717Z,13.80
2018-12-20T12:21:30.584Z,18.77
2018-12-20T12:26:15.360Z,12.37
2018-12-20T12:31:00.180Z,11.97
2018-12-20T12:35:44.999Z,12.33
2018-12-20T12:40:30.135Z,13.13
2018-12-20T12:45:14.963Z,13.00
2018-12-20T12:49:59.874Z,8.80
2018-12-20T12:54:44.710Z,6.80
2018-12-20T12:59:29.537Z,10.63
2018-12-20T13:04:14.445Z,6.67
2018-12-20T13:08:59.849Z,8.50
2018-12-20T13:13:44.720Z,7.23
2018-12-20T13:18:29.641Z,9.87
2018-12-20T13:23:14.529Z,5.73
2018-12-20T13:27:59.290Z,8.40
2018-12-20T13:32:44.228Z,16.30
2018-12-20T13:37:29.170Z,11.60
2018-12-20T13:42:14.261Z,6.43
2018-12-20T13:46:59.065Z,4.47
2018-12-20T13:51:43.866Z,9.67
2018-12-20T13:56:28.705Z,5.73
2018-12-20T14:01:13.657Z,5.20
2018-12-20T14:05:58.516Z,7.17
2018-12-20T14:10:43.424Z,7.60
2018-12-20T14:15:28.218Z,6.13
2018-12-20T14:20:13.107Z,6.27
2018-12-20T14:24:57.905Z,5.30
2018-12-20T14:29:42.826Z,10.47
2018-12-20T14:34:27.732Z,18.00
2018-12-20T14:39:12.729Z,17.20
2018-12-20T14:43:57.496Z,13.57
2018-12-20T14:48:42.322Z,14.10
2018-12-20T14:53:27.161Z,12.83
2018-12-20T14:58:13.089Z,9.07
2018-12-20T15:02:57.943Z,8.10
2018-12-20T15:07:42.865Z,11.90
2018-12-20T15:12:27.708Z,11.83
2018-12-20T15:17:12.732Z,14.43
2018-12-20T15:21:57.767Z,11.73
2018-12-20T15:26:42.674Z,11.07
2018-12-20T15:31:27.842Z,11.87
2018-12-20T15:36:12.772Z,12.93
2018-12-20T15:40:57.731Z,10.67
2018-12-20T15:45:42.651Z,15.57
2018-12-20T15:50:27.583Z,18.13
2018-12-20T15:55:12.607Z,18.30
2018-12-20T15:59:57.551Z,26.70
2018-12-20T16:04:42.606Z,18.13
2018-12-20T16:09:27.383Z,15.07
2018-12-20T16:14:12.352Z,15.07
2018-12-20T16:19:04.700Z,7.63
2018-12-20T16:23:44.334Z,11.77
2018-12-20T16:28:29.257Z,10.20
2018-12-20T16:33:14.040Z,7.17
2018-12-20T16:37:58.947Z,8.67
2018-12-20T16:42:44.027Z,12.67
2018-12-20T16:47:28.972Z,11.43
2018-12-20T16:52:14.030Z,9.53
2018-12-20T16:56:58.897Z,8.83
2018-12-20T17:01:43.713Z,13.97
2018-12-20T17:06:29.042Z,21.20
2018-12-20T17:11:14.096Z,22.47
2018-12-20T17:15:59.096Z,17.33
2018-12-20T17:20:43.878Z,18.57
2018-12-20T17:25:28.759Z,16.97
2018-12-20T17:30:13.796Z,20.37
2018-12-20T17:34:58.853Z,21.30
2018-12-20T17:39:43.753Z,18.13
2018-12-20T17:44:28.709Z,19.17
2018-12-20T17:49:13.604Z,16.13
2018-12-20T17:53:58.613Z,18.30
2018-12-20T17:58:43.515Z,19.30
2018-12-20T18:03:28.357Z,24.40
2018-12-20T18:08:13.530Z,19.80
2018-12-20T18:12:58.720Z,15.97
2018-12-20T18:17:43.680Z,17.37
2018-12-20T18:22:28.563Z,19.30
2018-12-20T18:27:13.575Z,14.53
2018-12-20T18:31:58.542Z,18.90
2018-12-20T18:36:43.944Z,13.10
2018-12-20T18:41:28.834Z,16.07
2018-12-20T18:46:14.097Z,13.77
2018-12-20T18:50:59.091Z,16.23
2018-12-20T18:55:44.094Z,15.30
2018-12-20T19:00:28.993Z,17.53
2018-12-20T19:05:14.206Z,15.80
2018-12-20T19:09:59.070Z,20.33
2018-12-20T19:14:44.395Z,26.30
2018-12-20T19:19:29.218Z,16.90
2018-12-20T19:24:14.175Z,17.97
2018-12-20T19:28:59.098Z,16.37
2018-12-20T19:33:43.989Z,17.43
2018-12-20T19:38:28.955Z,19.30
2018-12-20T19:43:14.795Z,20.20
2018-12-20T19:47:59.788Z,67.60
2018-12-20T19:52:44.778Z,31.30
2018-12-20T19:57:29.671Z,21.07
2018-12-20T20:02:14.848Z,21.37
2018-12-20T20:06:59.792Z,21.47
2018-12-20T20:11:44.829Z,14.53
2018-12-20T20:16:29.849Z,15.37
2018-12-20T20:21:14.775Z,25.10
2018-12-20T20:26:00.150Z,16.67
2018-12-20T20:30:45.315Z,11.90
2018-12-20T20:35:30.155Z,14.57
2018-12-20T20:40:15.052Z,19.83
2018-12-20T20:44:59.969Z,16.63
2018-12-20T20:49:44.840Z,16.43
2018-12-20T20:54:31.397Z,12.27
2018-12-20T20:59:16.510Z,9.23
2018-12-20T21:04:03.740Z,13.00
2018-12-20T21:08:48.584Z,11.07
2018-12-20T21:13:33.926Z,12.90
2018-12-20T21:18:18.877Z,13.73
2018-12-20T21:23:03.875Z,7.60
2018-12-20T21:27:48.841Z,3.07
2018-12-20T21:32:34.000Z,4.20
2018-12-20T21:37:19.947Z,4.83
2018-12-20T21:42:04.967Z,5.07
2018-12-20T21:46:50.073Z,5.60
2018-12-20T21:51:34.894Z,5.00
2018-12-20T21:56:24.502Z,5.10
2018-12-20T22:01:09.393Z,6.47
2018-12-20T22:05:54.391Z,5.27
2018-12-20T22:10:39.369Z,3.93
2018-12-20T22:15:24.299Z,6.60
2018-12-20T22:20:09.218Z,2.87
2018-12-20T22:24:54.375Z,3.97
2018-12-20T22:29:39.320Z,4.77
2018-12-20T22:34:25.374Z,5.83
2018-12-20T22:39:10.282Z,4.53
2018-12-20T22:43:55.189Z,4.87
2018-12-20T22:48:40.156Z,4.03
2018-12-20T22:53:25.027Z,4.70
2018-12-20T22:58:09.819Z,3.30
2018-12-20T23:02:54.682Z,6.00
2018-12-20T23:07:39.608Z,4.37
2018-12-20T23:12:24.895Z,5.97
2018-12-20T23:17:10.007Z,4.50
2018-12-20T23:21:55.039Z,4.43
2018-12-20T23:26:45.299Z,4.07
2018-12-20T23:31:30.211Z,2.47
2018-12-20T23:36:15.042Z,3.53
2018-12-20T23:40:59.824Z,2.70
2018-12-20T23:45:44.820Z,3.17
2018-12-20T23:50:29.475Z,3.50
2018-12-20T23:55:14.282Z,3.37
2018-12-20T23:59:58.989Z,3.27
